Time;durP1;ratioP1;P1;durP2;ratioP2;P2;SDS_P1;SDS_P2;PMS_P1;PMS_P2;Temp;Humidity;BMP_temperature;BMP_pressure;BME280_temperature;BME280_humidity;BME280_pressure;Samples;Min_cycle;Max_cycle;Signal;HPM_P1;HPM_P2
2021/09/22 00:00:25;;;;;;;6.60;1.50;;;18.40;54.70;;;;;;5011847;28;20476;-72
2021/09/22 00:02:52;;;;;;;3.03;1.00;;;18.40;54.50;;;;;;5011558;28;20431;-73
2021/09/22 00:05:20;;;;;;;3.42;0.82;;;18.50;54.40;;;;;;5011742;28;20372;-70
2021/09/22 00:07:47;;;;;;;5.70;1.17;;;18.60;55.00;;;;;;5011978;28;20036;-66
2021/09/22 00:10:18;;;;;;;1.98;0.90;;;18.60;54.00;;;;;;5011517;28;20029;-75
2021/09/22 00:12:48;;;;;;;5.20;0.98;;;18.70;53.70;;;;;;5011238;28;20092;-74
2021/09/22 00:15:18;;;;;;;2.67;0.80;;;18.70;54.30;;;;;;5011369;28;20388;-68
2021/09/22 00:17:46;;;;;;;3.45;1.08;;;18.70;54.70;;;;;;5012035;28;20116;-70
2021/09/22 00:20:14;;;;;;;4.05;0.90;;;18.70;54.60;;;;;;5011896;28;20483;-68
2021/09/22 00:22:42;;;;;;;3.00;1.10;;;18.90;54.30;;;;;;5011593;28;20025;-73
2021/09/22 00:25:11;;;;;;;2.45;1.30;;;18.80;54.80;;;;;;5012131;28;20029;-70
2021/09/22 00:27:39;;;;;;;7.07;1.00;;;18.90;54.40;;;;;;4993402;28;20030;-72
2021/09/22 00:30:07;;;;;;;3.22;0.93;;;18.90;54.00;;;;;;5011676;28;20014;-74
2021/09/22 00:32:34;;;;;;;1.40;0.80;;;19.00;54.10;;;;;;5012938;28;20057;-71
2021/09/22 00:35:03;;;;;;;1.85;0.77;;;19.10;54.20;;;;;;5013408;28;20502;-65
2021/09/22 00:37:30;;;;;;;2.38;0.80;;;19.10;54.00;;;;;;5013526;28;20030;-67
2021/09/22 00:39:57;;;;;;;2.47;1.02;;;19.10;54.40;;;;;;5013466;28;20033;-67
2021/09/22 00:42:25;;;;;;;2.05;0.90;;;19.20;54.20;;;;;;5011798;28;20472;-68
2021/09/22 00:44:57;;;;;;;4.00;0.73;;;19.20;53.80;;;;;;5011474;28;20030;-69
2021/09/22 00:47:29;;;;;;;3.10;0.90;;;19.20;54.10;;;;;;5014676;28;20015;-63
2021/09/22 00:49:56;;;;;;;1.58;0.82;;;19.30;53.80;;;;;;4996767;28;20042;-67
2021/09/22 00:52:25;;;;;;;1.63;1.00;;;19.30;53.40;;;;;;5015276;28;20075;-66
2021/09/22 00:54:54;;;;;;;4.75;0.88;;;19.40;53.60;;;;;;5014345;28;20099;-63
2021/09/22 00:57:22;;;;;;;2.95;1.02;;;19.40;52.70;;;;;;5014028;28;20028;-72
2021/09/22 00:59:49;;;;;;;2.65;1.20;;;19.40;53.20;;;;;;5014419;28;20029;-72
2021/09/22 01:02:17;;;;;;;1.63;0.95;;;19.50;53.00;;;;;;5014736;28;20025;-67
2021/09/22 01:04:45;;;;;;;2.00;0.50;;;19.50;53.30;;;;;;5014326;28;20029;-68
2021/09/22 01:07:14;;;;;;;2.17;0.90;;;19.50;53.40;;;;;;5014069;28;20018;-70
2021/09/22 01:09:42;;;;;;;1.92;0.70;;;19.50;53.10;;;;;;5014200;28;20061;-66
2021/09/22 01:12:10;;;;;;;2.80;0.88;;;19.50;53.00;;;;;;5013921;28;20022;-68
2021/09/22 01:14:38;;;;;;;1.98;0.80;;;19.60;53.90;;;;;;5014025;28;20117;-71
2021/09/22 01:17:05;;;;;;;2.08;0.90;;;19.60;53.70;;;;;;5013736;28;20074;-68
2021/09/22 01:19:33;;;;;;;2.80;0.85;;;19.60;53.70;;;;;;5013386;28;20075;-68
2021/09/22 01:22:00;;;;;;;7.10;0.80;;;19.70;53.60;;;;;;5013880;28;20018;-70
2021/09/22 01:24:28;;;;;;;1.27;0.60;;;19.80;52.90;;;;;;5013595;28;20056;-64
2021/09/22 01:26:55;;;;;;;1.70;0.60;;;19.90;53.10;;;;;;5013128;28;20491;-74
2021/09/22 01:29:23;;;;;;;3.22;1.02;;;19.90;53.60;;;;;;5013116;28;20030;-73
2021/09/22 01:31:50;;;;;;;2.55;0.98;;;19.90;53.10;;;;;;5014090;28;20480;-68
2021/09/22 01:34:18;;;;;;;2.53;0.90;;;19.90;53.30;;;;;;5013632;28;20038;-69
2021/09/22 01:36:48;;;;;;;2.25;0.85;;;19.90;52.80;;;;;;5013174;28;20082;-67
2021/09/22 01:39:16;;;;;;;1.80;0.60;;;19.90;53.30;;;;;;5013564;28;20500;-66
2021/09/22 01:41:43;;;;;;;4.63;0.85;;;20.00;53.10;;;;;;5013238;28;20061;-69
2021/09/22 01:44:11;;;;;;;3.85;0.70;;;20.00;52.80;;;;;;5013276;28;20029;-68
2021/09/22 01:46:39;;;;;;;1.73;0.68;;;20.10;53.20;;;;;;5012745;28;20030;-70
2021/09/22 01:49:06;;;;;;;1.90;0.85;;;20.10;52.90;;;;;;5013298;28;20037;-67
2021/09/22 01:51:33;;;;;;;2.95;0.90;;;20.10;53.30;;;;;;5013344;28;20048;-69
2021/09/22 01:54:01;;;;;;;2.92;0.60;;;20.20;52.90;;;;;;5012845;28;21236;-72
2021/09/22 01:56:28;;;;;;;2.97;0.70;;;20.20;52.80;;;;;;5013340;28;20034;-69
2021/09/22 01:58:56;;;;;;;2.25;0.80;;;20.20;53.00;;;;;;5012748;28;20117;-72
2021/09/22 02:01:23;;;;;;;1.10;0.70;;;20.20;53.10;;;;;;4995790;28;20026;-72
2021/09/22 02:03:50;;;;;;;2.35;0.60;;;20.20;52.90;;;;;;5012932;28;20053;-71
2021/09/22 02:06:18;;;;;;;2.38;0.80;;;20.20;53.10;;;;;;5013000;28;20026;-71
2021/09/22 02:08:46;;;;;;;1.95;0.70;;;20.20;53.20;;;;;;4995052;28;20042;-66
2021/09/22 02:11:13;;;;;;;3.13;0.80;;;20.20;53.50;;;;;;4998212;28;20037;-67
2021/09/22 02:13:41;;;;;;;1.98;0.73;;;20.20;53.40;;;;;;5015119;28;20033;-65
2021/09/22 02:16:08;;;;;;;2.00;0.85;;;20.30;53.30;;;;;;5009388;28;20146;-72
2021/09/22 02:18:36;;;;;;;2.47;0.65;;;20.30;53.40;;;;;;5013367;28;20022;-72
2021/09/22 02:21:09;;;;;;;8.43;0.95;;;20.30;53.60;;;;;;5012367;28;20102;-67
2021/09/22 02:23:39;;;;;;;1.23;0.70;;;20.30;53.20;;;;;;5013109;28;20053;-70
2021/09/22 02:26:08;;;;;;;3.88;0.65;;;20.40;53.60;;;;;;5012689;28;20029;-67
2021/09/22 02:28:35;;;;;;;1.95;0.55;;;20.40;53.70;;;;;;5012389;28;20022;-72
2021/09/22 02:31:03;;;;;;;1.58;0.80;;;20.40;53.60;;;;;;5012586;28;20022;-73
2021/09/22 02:33:30;;;;;;;1.70;0.50;;;20.40;53.60;;;;;;5012968;28;20022;-75
2021/09/22 02:35:58;;;;;;;4.95;1.30;;;20.50;53.50;;;;;;5012760;28;20029;-71
2021/09/22 02:38:28;;;;;;;5.47;1.08;;;20.60;53.30;;;;;;5013079;28;20061;-65
2021/09/22 02:40:56;;;;;;;1.50;0.80;;;20.50;53.50;;;;;;4981966;28;20058;-64
2021/09/22 02:43:23;;;;;;;2.58;0.90;;;20.50;53.50;;;;;;4973836;28;20026;-64
2021/09/22 02:45:51;;;;;;;13.50;1.40;;;20.60;53.60;;;;;;4990306;28;20385;-67
2021/09/22 02:48:18;;;;;;;2.15;0.70;;;20.60;53.40;;;;;;5009369;28;20545;-71
2021/09/22 02:50:46;;;;;;;4.00;0.82;;;20.60;53.50;;;;;;5008183;28;20062;-66
2021/09/22 02:53:14;;;;;;;2.47;0.75;;;20.60;53.70;;;;;;5009933;28;20151;-67
2021/09/22 02:55:42;;;;;;;1.80;0.82;;;20.60;53.90;;;;;;5009220;28;20144;-63
2021/09/22 02:58:10;;;;;;;0.88;0.70;;;20.60;53.90;;;;;;5006506;28;20487;-70
2021/09/22 03:00:37;;;;;;;2.25;0.90;;;20.70;54.00;;;;;;5007116;28;20072;-63
2021/09/22 03:03:05;;;;;;;2.03;0.93;;;20.70;54.60;;;;;;5008696;28;20025;-69
2021/09/22 03:05:34;;;;;;;1.85;0.77;;;20.70;54.10;;;;;;5009332;28;20014;-66
2021/09/22 03:08:02;;;;;;;3.47;0.80;;;20.70;54.60;;;;;;5004359;28;20071;-72
2021/09/22 03:10:31;;;;;;;2.20;0.80;;;20.70;54.10;;;;;;5009368;28;20468;-58
2021/09/22 03:13:02;;;;;;;3.45;0.70;;;20.70;54.20;;;;;;5006862;28;20045;-59
2021/09/22 03:15:30;;;;;;;3.72;0.65;;;20.70;54.10;;;;;;5009467;28;20034;-62
2021/09/22 03:17:57;;;;;;;2.58;0.80;;;20.80;54.00;;;;;;4987135;28;20030;-64
2021/09/22 03:20:25;;;;;;;1.70;0.60;;;20.70;53.90;;;;;;5009246;28;20033;-65
2021/09/22 03:22:52;;;;;;;4.53;0.90;;;20.70;54.30;;;;;;5009687;28;20476;-65
2021/09/22 03:25:20;;;;;;;1.42;0.73;;;20.70;54.10;;;;;;5009882;28;20026;-70
2021/09/22 03:27:47;;;;;;;1.48;0.55;;;20.70;54.30;;;;;;5003401;28;20456;-66
2021/09/22 03:30:15;;;;;;;2.58;0.80;;;20.80;54.30;;;;;;5008345;28;20030;-65
2021/09/22 03:32:42;;;;;;;3.00;1.27;;;20.80;54.60;;;;;;5008987;28;20033;-67
2021/09/22 03:35:11;;;;;;;3.90;1.33;;;20.80;54.50;;;;;;5015820;28;20034;-71
2021/09/22 03:37:38;;;;;;;1.65;0.57;;;20.80;54.70;;;;;;5013086;28;20386;-78
2021/09/22 03:40:07;;;;;;;1.77;0.90;;;20.80;54.40;;;;;;4994695;28;20471;-76
2021/09/22 03:42:34;;;;;;;2.35;1.00;;;20.80;54.80;;;;;;5011963;28;20413;-77
2021/09/22 03:45:01;;;;;;;3.38;0.80;;;20.80;54.50;;;;;;5011683;28;20026;-74
2021/09/22 03:47:29;;;;;;;4.75;1.05;;;20.90;54.70;;;;;;5011785;28;20030;-73
2021/09/22 03:49:58;;;;;;;5.50;1.15;;;20.80;54.80;;;;;;5011841;28;20069;-76
2021/09/22 03:52:25;;;;;;;5.13;1.00;;;20.80;54.40;;;;;;5012158;28;20430;-66
2021/09/22 03:54:53;;;;;;;10.52;1.88;;;20.90;54.60;;;;;;5010998;28;20123;-70
2021/09/22 03:57:23;;;;;;;17.88;3.08;;;20.80;54.20;;;;;;5011445;28;20048;-74
2021/09/22 03:59:50;;;;;;;25.20;2.78;;;20.80;54.60;;;;;;5011098;28;20026;-76
2021/09/22 04:02:18;;;;;;;27.80;2.72;;;20.80;54.50;;;;;;5011412;28;20679;-76
2021/09/22 04:04:45;;;;;;;63.05;5.88;;;20.80;54.40;;;;;;5011339;28;20072;-70
2021/09/22 04:07:13;;;;;;;40.20;4.35;;;20.80;54.70;;;;;;5011266;28;20452;-75
2021/09/22 04:09:40;;;;;;;51.60;5.47;;;20.80;54.50;;;;;;5011881;28;20033;-76
2021/09/22 04:12:08;;;;;;;38.67;5.20;;;20.80;54.80;;;;;;5011656;28;20482;-67
2021/09/22 04:14:35;;;;;;;31.90;4.03;;;20.80;55.30;;;;;;5011865;28;20026;-66
2021/09/22 04:17:03;;;;;;;35.45;6.13;;;20.80;55.00;;;;;;5011464;28;20074;-62
2021/09/22 04:19:30;;;;;;;19.83;3.03;;;20.80;55.30;;;;;;5011060;28;20050;-64
2021/09/22 04:21:57;;;;;;;24.75;3.38;;;20.80;55.30;;;;;;5011329;28;20465;-64
2021/09/22 04:24:25;;;;;;;34.03;4.40;;;20.80;55.40;;;;;;5011041;28;20155;-68
2021/09/22 04:26:53;;;;;;;23.40;3.97;;;20.70;55.30;;;;;;5010889;28;20033;-74
2021/09/22 04:29:20;;;;;;;28.45;2.80;;;20.80;55.30;;;;;;5010956;28;20364;-68
2021/09/22 04:31:48;;;;;;;16.00;2.90;;;20.80;55.20;;;;;;5011036;28;20026;-76
2021/09/22 04:34:15;;;;;;;18.27;2.35;;;20.80;55.20;;;;;;5011339;28;20392;-71
2021/09/22 04:36:45;;;;;;;31.20;3.95;;;20.80;55.30;;;;;;5011849;28;20041;-64
2021/09/22 04:39:13;;;;;;;23.65;3.22;;;20.80;55.70;;;;;;4994317;28;20380;-68
2021/09/22 04:41:40;;;;;;;26.70;3.97;;;20.80;55.70;;;;;;5011413;28;20022;-69
2021/09/22 04:44:08;;;;;;;26.05;3.92;;;20.80;55.80;;;;;;5010911;28;20030;-69
2021/09/22 04:46:36;;;;;;;29.83;3.58;;;20.80;55.60;;;;;;5011644;28;20022;-75
2021/09/22 04:49:04;;;;;;;17.30;2.70;;;20.80;55.70;;;;;;5011397;28;20026;-69
2021/09/22 04:51:32;;;;;;;17.80;3.05;;;20.80;55.30;;;;;;5010924;28;20121;-66
2021/09/22 04:53:59;;;;;;;22.05;2.97;;;20.80;55.70;;;;;;5010953;28;20022;-68
2021/09/22 04:56:27;;;;;;;18.55;2.80;;;20.80;55.90;;;;;;5011304;28;20030;-69
2021/09/22 04:58:54;;;;;;;21.00;3.47;;;20.80;56.00;;;;;;5011058;28;20022;-63
2021/09/22 05:01:22;;;;;;;16.63;2.88;;;20.70;56.20;;;;;;5011240;28;20030;-62
2021/09/22 05:03:49;;;;;;;22.02;2.78;;;20.70;55.70;;;;;;5011096;28;20018;-65
2021/09/22 05:06:17;;;;;;;19.13;3.95;;;20.80;55.80;;;;;;5003393;28;20022;-64
2021/09/22 05:08:45;;;;;;;15.07;2.63;;;20.80;56.10;;;;;;5005162;28;20469;-71
2021/09/22 05:11:13;;;;;;;14.73;3.15;;;20.80;56.50;;;;;;4988006;28;20056;-65
2021/09/22 05:13:40;;;;;;;28.35;3.38;;;20.80;56.80;;;;;;5006781;28;20025;-62
2021/09/22 05:16:08;;;;;;;14.07;2.92;;;20.80;56.80;;;;;;5005297;28;20022;-60
2021/09/22 05:18:35;;;;;;;20.45;3.15;;;20.80;56.70;;;;;;5006386;28;20089;-66
2021/09/22 05:21:03;;;;;;;16.10;3.10;;;20.80;56.70;;;;;;5004677;28;20026;-62
2021/09/22 05:23:30;;;;;;;13.65;2.53;;;20.80;56.80;;;;;;4988573;28;20113;-67
2021/09/22 05:25:58;;;;;;;13.63;2.65;;;20.80;56.80;;;;;;5006030;28;20041;-67
2021/09/22 05:28:25;;;;;;;25.58;2.53;;;20.80;57.00;;;;;;5006637;28;20223;-75
2021/09/22 05:30:53;;;;;;;19.58;3.03;;;20.80;57.20;;;;;;5006374;28;20102;-62
2021/09/22 05:33:20;;;;;;;20.23;2.80;;;20.80;56.80;;;;;;5008187;28;20022;-68
2021/09/22 05:35:48;;;;;;;20.92;2.63;;;20.90;57.20;;;;;;5006114;28;20381;-72
2021/09/22 05:38:18;;;;;;;9.63;2.00;;;20.80;57.00;;;;;;5010070;28;20098;-53
2021/09/22 05:40:45;;;;;;;9.95;1.67;;;20.90;57.20;;;;;;5008049;28;20029;-61
2021/09/22 05:43:13;;;;;;;7.70;1.70;;;21.00;56.40;;;;;;5004306;28;20033;-54
2021/09/22 05:45:40;;;;;;;9.35;1.88;;;21.10;56.20;;;;;;5008961;28;20024;-53
2021/09/22 05:48:07;;;;;;;8.25;2.10;;;21.10;55.80;;;;;;5009035;28;20075;-58
2021/09/22 05:50:35;;;;;;;7.90;1.70;;;21.10;55.60;;;;;;5009193;28;20038;-49
2021/09/22 05:53:03;;;;;;;9.15;1.70;;;21.10;55.90;;;;;;5005987;28;20034;-56
2021/09/22 05:55:30;;;;;;;7.28;1.83;;;21.10;55.80;;;;;;5009300;28;20046;-58
2021/09/22 05:57:57;;;;;;;6.10;1.60;;;21.10;55.70;;;;;;5008292;28;20034;-60
2021/09/22 06:00:25;;;;;;;10.68;1.77;;;21.10;56.10;;;;;;5005566;28;20042;-54
2021/09/22 06:02:52;;;;;;;3.97;1.20;;;21.10;56.20;;;;;;5004658;28;20038;-58
2021/09/22 06:05:19;;;;;;;7.13;1.60;;;21.00;56.40;;;;;;4991810;28;20073;-55
2021/09/22 06:07:47;;;;;;;6.65;1.90;;;21.10;56.40;;;;;;5008364;28;20038;-59
2021/09/22 06:10:14;;;;;;;8.30;1.63;;;21.00;56.60;;;;;;5009883;28;20033;-72
2021/09/22 06:12:42;;;;;;;5.28;1.25;;;20.80;56.70;;;;;;5005927;28;20033;-74
2021/09/22 06:15:11;;;;;;;6.10;1.35;;;20.60;57.40;;;;;;5009346;28;20052;-73
2021/09/22 06:17:39;;;;;;;8.40;1.77;;;20.50;57.90;;;;;;5010626;28;20112;-67
2021/09/22 06:20:07;;;;;;;4.55;1.35;;;20.40;58.10;;;;;;5003941;28;20022;-63
2021/09/22 06:22:34;;;;;;;5.78;1.52;;;20.50;58.20;;;;;;5011458;28;20030;-61
2021/09/22 06:25:02;;;;;;;3.28;1.10;;;20.40;58.20;;;;;;5011905;28;20117;-65
2021/09/22 06:27:30;;;;;;;4.75;2.08;;;20.40;58.10;;;;;;5011701;28;20476;-61
2021/09/22 06:29:58;;;;;;;4.55;1.80;;;20.40;58.40;;;;;;4994438;28;20030;-61
2021/09/22 06:32:26;;;;;;;4.03;2.17;;;20.40;58.50;;;;;;5011498;28;20097;-65
2021/09/22 06:34:54;;;;;;;5.75;2.20;;;20.40;58.60;;;;;;5010972;28;20038;-61
2021/09/22 06:37:21;;;;;;;6.47;2.05;;;20.30;58.70;;;;;;5011711;28;20029;-62
2021/09/22 06:39:49;;;;;;;9.32;2.78;;;20.30;58.80;;;;;;5011618;28;20026;-66
2021/09/22 06:42:16;;;;;;;6.07;3.35;;;20.30;58.60;;;;;;5010097;28;20026;-62
2021/09/22 06:44:44;;;;;;;7.57;3.42;;;20.30;58.80;;;;;;5010912;28;20030;-60
2021/09/22 06:47:11;;;;;;;8.68;3.05;;;20.30;58.80;;;;;;5011625;28;20060;-62
2021/09/22 06:49:39;;;;;;;6.25;3.22;;;20.30;58.70;;;;;;4993164;28;20121;-63
2021/09/22 06:52:06;;;;;;;12.30;3.80;;;20.20;58.70;;;;;;5011353;28;20029;-63
2021/09/22 06:54:34;;;;;;;6.63;3.65;;;20.20;59.80;;;;;;5011514;28;20109;-64
2021/09/22 06:57:02;;;;;;;4.40;2.63;;;20.20;59.30;;;;;;5010836;28;20026;-66
2021/09/22 06:59:30;;;;;;;14.10;3.70;;;20.10;59.50;;;;;;5010822;28;20026;-64
2021/09/22 07:01:57;;;;;;;11.25;3.65;;;20.10;59.70;;;;;;5011335;28;20049;-64
2021/09/22 07:04:25;;;;;;;5.68;3.70;;;20.00;59.70;;;;;;5012041;28;20051;-69
2021/09/22 07:06:52;;;;;;;5.82;4.13;;;20.00;59.80;;;;;;4994407;28;20114;-61
2021/09/22 07:09:20;;;;;;;12.32;4.28;;;20.00;59.80;;;;;;5011360;28;20049;-66
2021/09/22 07:11:54;;;;;;;7.40;5.13;;;20.00;59.80;;;;;;4993520;28;20030;-68
2021/09/22 07:14:22;;;;;;;7.82;4.65;;;20.00;59.90;;;;;;5011280;28;20053;-66
2021/09/22 07:16:49;;;;;;;15.60;7.35;;;20.00;59.90;;;;;;5011833;28;20102;-65
2021/09/22 07:19:20;;;;;;;9.57;5.13;;;20.00;60.00;;;;;;5010710;28;20032;-62
2021/09/22 07:21:51;;;;;;;12.60;4.50;;;20.00;60.00;;;;;;5010830;28;20034;-68
2021/09/22 07:24:24;;;;;;;;;;;19.90;60.10;;;;;;5010921;28;20061;-63
2021/09/22 07:26:53;;;;;;;9.05;4.65;;;19.90;60.40;;;;;;4992880;28;19910;-68
2021/09/22 07:29:20;;;;;;;7.18;4.97;;;20.00;60.70;;;;;;4993014;28;20417;-66
2021/09/22 07:31:48;;;;;;;9.65;4.18;;;20.00;61.20;;;;;;5010406;28;20117;-63
2021/09/22 07:34:16;;;;;;;7.95;4.50;;;19.90;61.10;;;;;;5009875;28;20026;-62
2021/09/22 07:36:44;;;;;;;8.38;3.90;;;19.90;61.30;;;;;;5010680;28;20068;-62
2021/09/22 07:39:12;;;;;;;5.57;3.88;;;19.90;61.10;;;;;;5010569;28;20129;-65
2021/09/22 07:41:40;;;;;;;9.32;3.65;;;19.90;61.30;;;;;;4992891;28;20029;-64
2021/09/22 07:44:07;;;;;;;5.95;3.22;;;19.80;61.40;;;;;;4992171;28;20030;-66
2021/09/22 07:46:35;;;;;;;10.10;3.55;;;19.80;62.00;;;;;;5010904;28;20026;-67
2021/09/22 07:49:04;;;;;;;4.20;3.00;;;19.70;63.00;;;;;;5011302;28;20026;-71
2021/09/22 07:51:31;;;;;;;8.95;3.13;;;19.80;63.10;;;;;;5011697;28;20484;-74
2021/09/22 07:53:58;;;;;;;7.35;3.08;;;19.70;63.00;;;;;;5010046;28;20052;-71
2021/09/22 07:56:26;;;;;;;5.82;3.00;;;19.80;63.10;;;;;;5010607;28;20025;-67
2021/09/22 07:58:53;;;;;;;5.93;3.13;;;19.70;62.70;;;;;;5011243;28;20030;-65
2021/09/22 08:01:20;;;;;;;3.30;2.47;;;19.70;62.70;;;;;;5010019;28;20457;-63
2021/09/22 08:03:48;;;;;;;6.68;2.80;;;19.70;62.70;;;;;;5010686;28;20034;-67
2021/09/22 08:06:15;;;;;;;5.93;2.67;;;19.60;63.00;;;;;;5011433;28;20022;-66
2021/09/22 08:08:43;;;;;;;5.40;3.00;;;19.60;63.00;;;;;;5008992;28;20062;-70
2021/09/22 08:11:11;;;;;;;7.20;3.17;;;19.60;63.40;;;;;;5009767;28;20029;-65
2021/09/22 08:13:39;;;;;;;5.10;2.88;;;19.60;63.20;;;;;;4992341;28;20038;-71
2021/09/22 08:16:07;;;;;;;7.13;2.80;;;19.50;63.00;;;;;;5010578;28;20029;-68
2021/09/22 08:18:34;;;;;;;4.30;2.17;;;19.50;63.10;;;;;;5009800;28;20022;-74
2021/09/22 08:21:02;;;;;;;5.70;2.63;;;19.40;63.10;;;;;;5011243;28;20109;-68
2021/09/22 08:23:29;;;;;;;6.32;2.88;;;19.40;63.20;;;;;;5000262;28;20379;-64
2021/09/22 08:25:57;;;;;;;3.72;2.30;;;19.30;63.60;;;;;;5006087;28;20110;-71
2021/09/22 08:28:24;;;;;;;4.38;2.20;;;19.30;63.60;;;;;;5008082;28;20437;-69
2021/09/22 08:30:52;;;;;;;6.40;2.38;;;19.30;63.60;;;;;;5008283;28;20026;-77
2021/09/22 08:33:19;;;;;;;5.43;2.47;;;19.30;63.70;;;;;;5007141;28;20029;-71
2021/09/22 08:35:47;;;;;;;6.63;2.85;;;19.30;63.80;;;;;;5004120;28;20034;-78
2021/09/22 08:38:14;;;;;;;3.75;2.53;;;19.20;63.90;;;;;;4990637;28;20028;-68
2021/09/22 08:40:41;;;;;;;5.40;2.67;;;19.20;63.90;;;;;;5006610;28;20128;-65
2021/09/22 08:43:09;;;;;;;3.45;1.95;;;19.20;63.90;;;;;;5006849;28;20449;-75
2021/09/22 08:45:38;;;;;;;5.32;2.60;;;19.20;63.90;;;;;;5004266;28;20026;-68
2021/09/22 08:48:09;;;;;;;4.28;2.85;;;19.10;64.00;;;;;;5002081;28;20086;-67
2021/09/22 08:50:37;;;;;;;7.70;3.03;;;19.10;64.00;;;;;;5003985;28;20472;-66
2021/09/22 08:53:04;;;;;;;3.88;2.33;;;19.10;64.10;;;;;;5006609;28;20058;-67
2021/09/22 08:55:31;;;;;;;4.25;2.42;;;19.10;64.20;;;;;;4998076;28;20045;-70
2021/09/22 08:58:00;;;;;;;5.55;2.65;;;19.00;64.10;;;;;;5003865;28;20049;-64
2021/09/22 09:00:28;;;;;;;3.25;2.10;;;19.00;64.20;;;;;;5006776;28;20026;-71
2021/09/22 09:02:55;;;;;;;5.22;2.53;;;19.00;64.20;;;;;;5004277;28;20436;-64
2021/09/22 09:05:24;;;;;;;3.47;2.17;;;19.00;64.10;;;;;;5000934;28;20026;-67
2021/09/22 09:07:54;;;;;;;5.22;2.50;;;19.00;64.30;;;;;;5011149;28;20116;-66
2021/09/22 09:10:26;;;;;;;5.57;2.42;;;19.00;64.20;;;;;;4991190;28;20060;-75
2021/09/22 09:13:06;;;;;;;3.45;1.92;;;18.90;64.30;;;;;;5007936;28;20330;-65
2021/09/22 09:15:39;;;;;;;5.07;2.10;;;18.90;64.80;;;;;;5001429;28;20046;-67
2021/09/22 09:18:21;;;;;;;5.13;2.03;;;18.90;64.20;;;;;;5008252;28;20018;-68
2021/09/22 09:20:50;;;;;;;4.55;2.03;;;18.90;64.20;;;;;;5011397;28;20125;-66
2021/09/22 09:23:21;;;;;;;4.40;2.50;;;18.90;64.30;;;;;;5011662;28;20105;-71
2021/09/22 09:26:00;;;;;;;3.10;2.38;;;18.90;64.30;;;;;;5006824;28;20477;-71
2021/09/22 09:28:31;;;;;;;5.45;2.38;;;18.80;64.30;;;;;;5011666;28;20034;-72
2021/09/22 09:31:11;;;;;;;3.38;2.40;;;18.80;64.30;;;;;;4993910;28;20271;-67
2021/09/22 09:33:49;;;;;;;6.63;2.60;;;18.80;64.40;;;;;;5010142;28;20251;-70
2021/09/22 09:36:32;;;;;;;3.70;2.20;;;18.70;64.40;;;;;;5005442;28;20022;-68
2021/09/22 09:39:20;;;;;;;3.47;2.33;;;18.70;64.40;;;;;;5010170;28;20137;-68
2021/09/22 09:41:56;;;;;;;7.13;2.35;;;18.70;64.40;;;;;;5008574;28;20026;-68
2021/09/22 09:44:32;;;;;;;4.82;2.15;;;18.70;64.30;;;;;;5008301;28;20032;-68
2021/09/22 09:47:10;;;;;;;4.20;2.30;;;18.60;64.30;;;;;;5006753;28;20044;-70
2021/09/22 09:49:40;;;;;;;4.05;2.40;;;18.60;64.40;;;;;;5009149;28;20395;-70
2021/09/22 09:52:07;;;;;;;3.33;2.13;;;18.60;64.40;;;;;;5010076;28;20324;-70
2021/09/22 09:54:36;;;;;;;3.67;2.47;;;18.60;64.50;;;;;;5009493;28;20437;-69
2021/09/22 09:57:12;;;;;;;4.93;2.40;;;18.60;64.80;;;;;;5005692;28;20101;-68
2021/09/22 09:59:51;;;;;;;3.83;2.22;;;18.60;64.60;;;;;;4992004;28;20090;-73
2021/09/22 10:02:32;;;;;;;3.30;2.17;;;18.60;64.50;;;;;;5008395;28;20025;-68
2021/09/22 10:05:03;;;;;;;5.13;2.53;;;18.60;64.50;;;;;;5009703;28;20102;-70
2021/09/22 10:07:35;;;;;;;4.72;2.47;;;18.60;64.40;;;;;;5006715;28;20029;-66
2021/09/22 10:10:03;;;;;;;;;;;18.60;64.50;;;;;;4992328;28;20052;-67
2021/09/22 10:12:32;;;;;;;4.32;2.22;;;18.60;64.70;;;;;;4991937;28;20279;-65
2021/09/22 10:15:01;;;;;;;4.72;2.38;;;18.60;64.60;;;;;;4975551;28;20091;-66
2021/09/22 10:17:31;;;;;;;7.57;2.97;;;18.50;64.50;;;;;;5004914;28;20052;-66
2021/09/22 10:19:59;;;;;;;3.53;2.20;;;18.50;64.60;;;;;;5009513;28;20038;-70
2021/09/22 10:22:27;;;;;;;4.55;2.60;;;18.50;64.70;;;;;;5008821;28;20048;-70
2021/09/22 10:24:56;;;;;;;5.88;3.08;;;18.50;64.60;;;;;;4991657;28;20083;-65
2021/09/22 10:27:24;;;;;;;5.88;2.42;;;18.40;64.70;;;;;;5005593;28;20037;-73
2021/09/22 10:29:59;;;;;;;4.10;2.38;;;18.40;64.50;;;;;;5009278;28;20519;-64
2021/09/22 10:32:38;;;;;;;5.20;2.28;;;18.40;64.60;;;;;;5008548;28;20055;-70
2021/09/22 10:35:27;;;;;;;4.05;2.45;;;18.40;64.50;;;;;;5005407;28;20073;-68
2021/09/22 10:37:59;;;;;;;3.80;2.03;;;18.40;64.50;;;;;;5008311;28;20427;-64
2021/09/22 10:40:53;;;;;;;4.18;2.33;;;18.40;64.50;;;;;;5008969;28;20049;-66
2021/09/22 10:43:26;;;;;;;4.88;2.50;;;18.40;64.60;;;;;;5007333;28;20037;-67
2021/09/22 10:46:09;;;;;;;3.22;2.00;;;18.40;64.50;;;;;;5004737;28;20026;-62
2021/09/22 10:48:39;;;;;;;5.78;2.67;;;18.40;64.60;;;;;;4990727;28;20037;-69
2021/09/22 10:51:10;;;;;;;9.18;2.88;;;18.40;64.50;;;;;;4991396;28;20057;-66
2021/09/22 10:53:45;;;;;;;6.10;2.28;;;18.40;64.50;;;;;;5005415;28;20034;-68
2021/09/22 10:56:33;;;;;;;4.75;2.25;;;18.30;64.50;;;;;;4986184;28;20034;-64
2021/09/22 10:59:38;;;;;;;5.50;2.60;;;18.30;64.50;;;;;;5008803;28;20022;-66
2021/09/22 11:02:11;;;;;;;3.45;2.15;;;18.30;64.60;;;;;;5005168;28;20030;-61
2021/09/22 11:04:55;;;;;;;4.13;2.33;;;18.30;64.70;;;;;;5006334;28;20018;-66
2021/09/22 11:07:23;;;;;;;4.50;2.70;;;18.30;64.60;;;;;;5004005;28;20113;-67
2021/09/22 11:09:51;;;;;;;3.65;2.40;;;18.30;64.70;;;;;;5008336;28;20026;-66
2021/09/22 11:12:20;;;;;;;3.65;2.35;;;18.30;64.70;;;;;;5007725;28;20034;-62
2021/09/22 11:14:51;;;;;;;5.97;3.33;;;18.20;64.80;;;;;;5008624;28;20034;-63
2021/09/22 11:17:23;;;;;;;3.30;2.20;;;18.20;64.80;;;;;;5004272;28;20062;-68
2021/09/22 11:19:56;;;;;;;5.45;2.92;;;18.20;64.80;;;;;;4990490;28;20044;-66
2021/09/22 11:22:30;;;;;;;5.63;2.85;;;18.20;64.80;;;;;;5008447;28;20476;-64
2021/09/22 11:25:04;;;;;;;6.28;2.92;;;18.20;64.90;;;;;;5009657;28;20393;-68
2021/09/22 11:27:32;;;;;;;4.15;2.50;;;18.10;65.10;;;;;;5005043;28;20078;-70
2021/09/22 11:30:03;;;;;;;5.65;2.42;;;18.10;64.90;;;;;;5007841;28;20038;-67
2021/09/22 11:32:48;;;;;;;3.58;2.55;;;18.10;65.00;;;;;;4990813;28;20105;-65
2021/09/22 11:35:19;;;;;;;4.85;2.95;;;18.10;64.90;;;;;;5007418;28;20038;-69
2021/09/22 11:37:47;;;;;;;3.75;2.20;;;18.10;65.00;;;;;;5006536;28;20026;-70
2021/09/22 11:40:22;;;;;;;2.50;2.20;;;18.10;64.90;;;;;;5007589;28;20121;-64
2021/09/22 11:43:04;;;;;;;3.60;2.22;;;18.10;65.00;;;;;;5009124;28;20022;-66
2021/09/22 11:45:39;;;;;;;4.30;2.60;;;18.10;65.00;;;;;;4986304;28;20117;-63
2021/09/22 11:48:09;;;;;;;3.20;2.35;;;18.00;65.10;;;;;;5006466;28;20041;-61
2021/09/22 11:50:44;;;;;;;4.53;2.70;;;18.00;65.10;;;;;;4990493;28;20050;-60
2021/09/22 11:53:17;;;;;;;7.40;2.90;;;18.00;65.20;;;;;;5008075;28;20026;-64
2021/09/22 11:55:47;;;;;;;6.75;2.70;;;18.00;65.20;;;;;;4987130;28;20302;-66
2021/09/22 11:58:17;;;;;;;4.55;2.67;;;18.00;65.20;;;;;;5008927;28;20022;-69
2021/09/22 12:00:50;;;;;;;4.85;2.63;;;17.90;65.10;;;;;;5007552;28;20041;-67
2021/09/22 12:03:22;;;;;;;7.63;2.53;;;17.90;65.10;;;;;;5008527;28;20105;-70
2021/09/22 12:06:10;;;;;;;3.50;2.53;;;17.90;65.20;;;;;;4970807;28;20037;-66
2021/09/22 12:08:39;;;;;;;4.75;3.08;;;17.90;65.10;;;;;;5007418;28;20022;-72
2021/09/22 12:11:09;;;;;;;5.63;3.08;;;18.00;65.00;;;;;;5005427;28;20048;-66
2021/09/22 12:13:48;;;;;;;6.07;3.10;;;17.90;65.20;;;;;;5007523;28;20030;-68
2021/09/22 12:16:19;;;;;;;3.33;2.83;;;17.90;65.00;;;;;;4976962;28;20037;-69
2021/09/22 12:18:58;;;;;;;4.35;2.78;;;17.90;65.10;;;;;;4992615;28;20022;-64
2021/09/22 12:21:31;;;;;;;3.58;2.35;;;17.90;65.20;;;;;;5010377;28;20032;-65
2021/09/22 12:24:06;;;;;;;4.53;2.67;;;17.90;65.20;;;;;;5009715;28;20065;-69
2021/09/22 12:26:34;;;;;;;3.72;2.45;;;17.80;65.20;;;;;;5009813;28;20026;-70
2021/09/22 12:29:05;;;;;;;7.05;2.95;;;17.80;65.30;;;;;;5009758;28;20037;-68
2021/09/22 12:31:42;;;;;;;3.13;2.30;;;17.80;65.30;;;;;;5010212;28;20026;-68
2021/09/22 12:34:23;;;;;;;5.68;2.60;;;17.70;65.40;;;;;;5009657;28;20033;-66
2021/09/22 12:36:53;;;;;;;3.65;2.42;;;17.70;65.50;;;;;;4993219;28;20065;-67
2021/09/22 12:39:23;;;;;;;3.38;2.50;;;17.70;65.50;;;;;;5009787;28;20069;-65
2021/09/22 12:42:01;;;;;;;6.57;3.22;;;17.70;65.60;;;;;;5009424;28;20387;-67
2021/09/22 12:44:30;;;;;;;4.10;2.67;;;17.70;65.70;;;;;;4992503;28;20230;-65
2021/09/22 12:46:57;;;;;;;3.58;2.47;;;17.70;65.80;;;;;;5010158;28;20028;-65
2021/09/22 12:49:25;;;;;;;5.95;3.08;;;17.60;65.80;;;;;;5010094;28;20026;-71
2021/09/22 12:51:56;;;;;;;4.82;3.05;;;17.60;65.90;;;;;;5009326;28;20034;-70
2021/09/22 12:54:29;;;;;;;3.53;2.15;;;17.60;66.00;;;;;;5009477;28;20022;-66
2021/09/22 12:57:18;;;;;;;4.28;2.55;;;17.50;66.10;;;;;;4992431;28;20038;-71